Time;durP1;ratioP1;P1;durP2;ratioP2;P2;SDS_P1;SDS_P2;PMS_P1;PMS_P2;Temp;Humidity;BMP_temperature;BMP_pressure;BME280_temperature;BME280_humidity;BME280_pressure;Samples;Min_cycle;Max_cycle;Signal;HPM_P1;HPM_P2
2022/10/13 00:01:11;;;;;;;6.37;3.77;;;11.40;98.00;;;;;;5071616;28;20461;-67
2022/10/13 00:03:39;;;;;;;6.30;2.93;;;11.40;98.00;;;;;;5071724;28;20530;-67
2022/10/13 00:06:07;;;;;;;5.57;3.30;;;11.20;98.00;;;;;;5071427;28;20490;-67
2022/10/13 00:08:37;;;;;;;9.17;3.90;;;11.00;98.00;;;;;;5071653;28;20453;-67
2022/10/13 00:11:11;;;;;;;6.17;3.27;;;11.00;98.00;;;;;;5071376;28;20467;-67
2022/10/13 00:13:39;;;;;;;7.00;3.43;;;10.90;98.00;;;;;;5070168;28;21019;-67
2022/10/13 00:16:07;;;;;;;5.07;3.13;;;10.90;98.00;;;;;;5071279;28;20471;-67
2022/10/13 00:18:34;;;;;;;8.90;3.60;;;10.90;98.00;;;;;;5071428;28;20460;-67
2022/10/13 00:21:06;;;;;;;6.13;2.30;;;11.00;98.00;;;;;;5071260;28;20460;-67
2022/10/13 00:23:34;;;;;;;4.67;2.80;;;11.00;98.00;;;;;;5070973;28;20463;-67
2022/10/13 00:26:04;;;;;;;11.57;3.77;;;11.00;98.00;;;;;;5070719;28;20484;-68
2022/10/13 00:28:32;;;;;;;6.37;3.33;;;11.10;98.00;;;;;;5070176;28;20463;-66
2022/10/13 00:31:00;;;;;;;3.80;3.00;;;11.00;98.00;;;;;;5071480;28;20466;-67
2022/10/13 00:33:27;;;;;;;10.37;3.80;;;10.80;98.00;;;;;;5071098;28;20512;-67
2022/10/13 00:35:54;;;;;;;6.10;3.30;;;10.70;98.00;;;;;;5071301;28;20928;-67
2022/10/13 00:38:23;;;;;;;6.47;3.43;;;10.70;98.00;;;;;;5071005;28;20458;-67
2022/10/13 00:40:53;;;;;;;4.90;2.33;;;10.60;98.00;;;;;;5069882;28;20467;-67
2022/10/13 00:43:22;;;;;;;5.47;2.80;;;10.50;98.00;;;;;;5070834;28;20853;-66
2022/10/13 00:45:51;;;;;;;7.20;3.00;;;10.40;98.00;;;;;;5070954;28;20496;-67
2022/10/13 00:48:22;;;;;;;7.30;3.30;;;10.20;98.00;;;;;;5070783;28;20753;-67
2022/10/13 00:50:49;;;;;;;5.27;2.73;;;10.20;98.00;;;;;;5071021;28;20462;-67
2022/10/13 00:53:19;;;;;;;5.70;3.27;;;10.30;98.00;;;;;;5071061;28;20461;-67
2022/10/13 00:55:47;;;;;;;4.07;2.73;;;10.20;98.00;;;;;;5071025;28;20449;-67
2022/10/13 00:58:21;;;;;;;5.03;3.03;;;10.20;98.00;;;;;;5070904;28;20467;-67
2022/10/13 01:00:53;;;;;;;4.80;3.07;;;10.30;98.00;;;;;;5069863;28;20945;-67
2022/10/13 01:03:21;;;;;;;6.90;3.80;;;10.30;98.00;;;;;;5069526;28;20468;-67
2022/10/13 01:05:50;;;;;;;3.83;2.50;;;10.50;98.00;;;;;;5070949;28;20907;-67
2022/10/13 01:08:18;;;;;;;6.00;2.90;;;10.50;98.00;;;;;;5070685;28;20457;-67
2022/10/13 01:10:56;;;;;;;5.00;3.13;;;10.40;98.00;;;;;;5071031;28;20503;-67
2022/10/13 01:13:31;;;;;;;3.80;2.20;;;10.40;98.00;;;;;;5070429;28;20475;-67
2022/10/13 01:16:06;;;;;;;4.67;2.80;;;10.30;98.00;;;;;;5070888;28;20603;-67
2022/10/13 01:18:41;;;;;;;3.30;2.43;;;10.20;98.00;;;;;;5070817;28;20463;-67
2022/10/13 01:21:33;;;;;;;4.20;3.20;;;10.30;98.00;;;;;;5070871;28;20952;-67
2022/10/13 01:24:28;;;;;;;6.90;4.10;;;10.30;98.00;;;;;;5068229;28;20469;-67
2022/10/13 01:27:05;;;;;;;4.47;2.13;;;10.30;98.00;;;;;;5070624;28;20539;-67
2022/10/13 01:30:15;;;;;;;5.20;2.90;;;10.40;98.00;;;;;;5071234;28;20456;-67
2022/10/13 01:33:21;;;;;;;3.87;2.97;;;10.40;98.00;;;;;;5070929;28;20549;-67
2022/10/13 01:36:06;;;;;;;4.83;2.73;;;10.50;98.00;;;;;;5065638;28;20469;-66
2022/10/13 01:38:41;;;;;;;3.13;2.10;;;10.60;98.00;;;;;;5074506;28;20467;-67
2022/10/13 01:41:14;;;;;;;5.57;2.60;;;10.70;98.00;;;;;;5074371;28;20457;-66
2022/10/13 01:43:46;;;;;;;6.30;3.63;;;10.50;98.00;;;;;;5072999;28;20460;-67
2022/10/13 01:46:17;;;;;;;6.10;2.40;;;10.40;98.00;;;;;;5073812;28;20488;-67
2022/10/13 01:48:46;;;;;;;4.60;2.43;;;10.50;98.00;;;;;;5072855;28;20454;-67
2022/10/13 01:51:17;;;;;;;5.13;2.60;;;10.50;98.00;;;;;;5074118;28;20460;-66
2022/10/13 01:53:46;;;;;;;6.03;2.87;;;10.40;98.00;;;;;;5074215;28;20454;-66
2022/10/13 01:56:15;;;;;;;4.47;2.43;;;10.20;98.00;;;;;;5073912;28;20469;-67
2022/10/13 01:58:42;;;;;;;2.90;2.43;;;10.00;98.00;;;;;;5073951;28;20952;-67
2022/10/13 02:01:36;;;;;;;3.80;2.90;;;10.00;98.00;;;;;;5073733;28;20958;-67
2022/10/13 02:04:23;;;;;;;11.10;2.57;;;10.10;98.00;;;;;;5072501;28;20453;-66
2022/10/13 02:07:01;;;;;;;3.50;2.50;;;10.20;98.00;;;;;;5073671;28;20507;-67
2022/10/13 02:09:34;;;;;;;3.03;2.40;;;10.00;98.00;;;;;;5072413;28;20515;-67
2022/10/13 02:12:07;;;;;;;3.33;2.37;;;10.00;98.00;;;;;;5073508;28;21012;-67
2022/10/13 02:14:38;;;;;;;5.03;2.90;;;10.20;98.00;;;;;;5073748;28;20468;-67
2022/10/13 02:17:05;;;;;;;4.97;2.53;;;10.20;98.00;;;;;;5072478;28;20482;-67
2022/10/13 02:19:37;;;;;;;46.53;3.03;;;10.30;98.00;;;;;;5073537;28;20450;-67
2022/10/13 02:22:06;;;;;;;4.60;2.53;;;10.20;98.00;;;;;;5073302;28;20452;-66
2022/10/13 02:24:34;;;;;;;8.87;3.57;;;10.10;98.00;;;;;;5073685;28;20475;-67
2022/10/13 02:27:01;;;;;;;3.40;2.10;;;10.20;98.00;;;;;;5073639;28;21027;-67
2022/10/13 02:29:28;;;;;;;3.47;2.67;;;10.20;98.00;;;;;;5073326;28;20456;-67
2022/10/13 02:31:55;;;;;;;4.57;2.37;;;10.30;98.00;;;;;;5072212;28;20971;-66
2022/10/13 02:34:22;;;;;;;3.20;2.30;;;10.50;98.00;;;;;;5073329;28;20885;-67
2022/10/13 02:36:51;;;;;;;5.73;2.83;;;10.60;98.00;;;;;;5071985;28;20458;-67
2022/10/13 02:39:18;;;;;;;3.17;2.33;;;10.40;98.00;;;;;;5073167;28;20454;-67
2022/10/13 02:41:45;;;;;;;4.23;3.23;;;10.40;98.00;;;;;;5072986;28;20452;-67
2022/10/13 02:44:12;;;;;;;3.00;1.83;;;10.20;98.00;;;;;;5071732;28;20467;-66
2022/10/13 02:46:43;;;;;;;3.67;2.30;;;10.10;98.00;;;;;;5072331;28;20712;-67
2022/10/13 02:49:11;;;;;;;6.43;2.83;;;10.10;98.00;;;;;;5072334;28;20472;-67
2022/10/13 02:51:38;;;;;;;6.57;2.60;;;10.20;98.00;;;;;;5071679;28;20453;-67
2022/10/13 02:54:06;;;;;;;3.17;2.43;;;10.20;98.00;;;;;;5072718;28;20455;-67
2022/10/13 02:56:33;;;;;;;3.17;2.40;;;10.30;98.00;;;;;;5071465;28;20457;-67
2022/10/13 02:59:00;;;;;;;4.00;2.53;;;10.40;98.00;;;;;;5072719;28;20488;-67
2022/10/13 03:01:28;;;;;;;4.77;2.43;;;10.50;98.00;;;;;;5072512;28;20456;-67
2022/10/13 03:03:55;;;;;;;5.43;2.83;;;10.70;98.00;;;;;;5072553;28;20459;-67
2022/10/13 03:06:22;;;;;;;5.43;2.60;;;10.60;98.00;;;;;;5072622;28;20459;-67
2022/10/13 03:08:49;;;;;;;2.23;1.63;;;10.60;98.00;;;;;;5072441;28;20966;-66
2022/10/13 03:11:19;;;;;;;6.10;2.80;;;10.60;98.00;;;;;;5072411;28;20457;-66
2022/10/13 03:13:46;;;;;;;5.10;2.67;;;10.60;98.00;;;;;;5071248;28;20460;-66
2022/10/13 03:16:13;;;;;;;9.03;2.50;;;10.60;98.00;;;;;;5072304;28;20479;-67
2022/10/13 03:18:40;;;;;;;4.93;2.43;;;10.60;98.00;;;;;;5072167;28;20559;-67
2022/10/13 03:21:07;;;;;;;2.30;1.80;;;10.60;98.00;;;;;;5071054;28;20460;-67
2022/10/13 03:23:35;;;;;;;4.27;2.90;;;10.70;98.00;;;;;;5072037;28;20477;-66
2022/10/13 03:26:03;;;;;;;3.87;2.33;;;10.70;98.00;;;;;;5070943;28;20465;-67
2022/10/13 03:28:32;;;;;;;3.10;2.10;;;10.80;98.00;;;;;;5069556;28;20553;-67
2022/10/13 03:31:03;;;;;;;3.50;2.50;;;10.80;98.00;;;;;;5072085;28;20538;-67
2022/10/13 03:33:30;;;;;;;3.97;2.60;;;10.90;98.00;;;;;;5072084;28;20460;-66
2022/10/13 03:36:00;;;;;;;4.47;2.90;;;10.80;98.00;;;;;;5070936;28;20460;-67
2022/10/13 03:38:27;;;;;;;5.50;3.00;;;10.80;98.00;;;;;;5072178;28;20554;-67
2022/10/13 03:40:54;;;;;;;7.30;2.83;;;10.80;98.00;;;;;;5070683;28;20497;-67
2022/10/13 03:43:21;;;;;;;10.90;4.03;;;10.80;98.00;;;;;;5071781;28;20466;-67
2022/10/13 03:45:56;;;;;;;4.83;2.83;;;10.80;98.00;;;;;;5071738;28;20458;-67
2022/10/13 03:48:24;;;;;;;10.93;2.73;;;10.80;98.00;;;;;;5071516;28;20513;-67
2022/10/13 03:50:51;;;;;;;3.23;2.20;;;10.90;98.00;;;;;;5071785;28;20458;-67
2022/10/13 03:53:18;;;;;;;3.13;2.47;;;11.00;98.00;;;;;;5071574;28;20958;-67
2022/10/13 03:55:49;;;;;;;5.07;3.00;;;10.90;98.00;;;;;;5071867;28;20458;-67
2022/10/13 03:58:16;;;;;;;5.30;3.10;;;10.90;98.00;;;;;;5071552;28;20486;-67
2022/10/13 04:00:44;;;;;;;4.30;2.53;;;11.00;98.00;;;;;;5071504;28;20455;-66
2022/10/13 04:03:12;;;;;;;7.10;3.47;;;10.90;98.00;;;;;;5071399;28;20958;-66
2022/10/13 04:05:39;;;;;;;7.90;2.57;;;10.80;98.00;;;;;;5071572;28;20463;-67
2022/10/13 04:08:07;;;;;;;2.87;2.00;;;10.80;98.00;;;;;;5071157;28;20514;-66
2022/10/13 04:10:34;;;;;;;4.93;2.20;;;10.80;98.00;;;;;;5071510;28;20462;-67
2022/10/13 04:13:01;;;;;;;6.23;3.50;;;10.80;98.00;;;;;;5071582;28;20464;-66
2022/10/13 04:15:28;;;;;;;3.30;2.43;;;10.70;98.00;;;;;;5071356;28;20463;-67
2022/10/13 04:17:55;;;;;;;3.53;2.07;;;10.70;98.00;;;;;;5071331;28;20511;-66
2022/10/13 04:20:24;;;;;;;4.40;2.50;;;10.60;98.00;;;;;;5071256;28;20465;-67
2022/10/13 04:22:51;;;;;;;3.93;2.80;;;10.70;98.00;;;;;;5071146;28;21041;-67
2022/10/13 04:25:18;;;;;;;4.07;2.40;;;10.60;98.00;;;;;;5071447;28;20466;-67
2022/10/13 04:27:47;;;;;;;3.67;2.23;;;10.50;98.00;;;;;;5071054;28;21129;-67
2022/10/13 04:30:15;;;;;;;4.17;2.10;;;10.60;98.00;;;;;;5071147;28;20459;-67
2022/10/13 04:32:42;;;;;;;4.83;2.80;;;10.50;98.00;;;;;;5071170;28;20461;-67
2022/10/13 04:35:09;;;;;;;5.17;3.17;;;10.50;98.00;;;;;;5071231;28;20490;-66
2022/10/13 04:37:39;;;;;;;3.00;2.30;;;10.40;98.00;;;;;;5071320;28;20462;-67
2022/10/13 04:40:06;;;;;;;3.40;2.20;;;10.50;98.00;;;;;;5071604;28;20458;-67
2022/10/13 04:42:34;;;;;;;5.07;3.07;;;10.50;98.00;;;;;;5071201;28;20499;-67
2022/10/13 04:45:01;;;;;;;2.83;2.13;;;10.50;98.00;;;;;;5071281;28;20466;-67
2022/10/13 04:47:28;;;;;;;3.67;2.37;;;10.60;98.00;;;;;;5070459;28;20844;-67
2022/10/13 04:49:55;;;;;;;5.63;2.80;;;10.50;98.00;;;;;;5071119;28;20457;-66
2022/10/13 04:52:22;;;;;;;2.77;2.13;;;10.50;98.00;;;;;;5070929;28;20950;-67
2022/10/13 04:54:57;;;;;;;3.87;2.50;;;10.60;98.00;;;;;;5070980;28;20455;-67
2022/10/13 04:57:24;;;;;;;3.70;2.43;;;10.60;98.00;;;;;;5071075;28;20510;-67
2022/10/13 04:59:51;;;;;;;7.60;3.20;;;10.60;98.00;;;;;;5070972;28;20521;-67
2022/10/13 05:02:19;;;;;;;4.97;2.67;;;10.50;98.00;;;;;;5071065;28;20454;-67
2022/10/13 05:04:46;;;;;;;5.20;2.53;;;10.40;98.00;;;;;;5071207;28;20458;-67
2022/10/13 05:07:13;;;;;;;7.47;3.17;;;10.40;98.00;;;;;;5070685;28;20489;-66
2022/10/13 05:09:40;;;;;;;5.43;2.57;;;10.40;98.00;;;;;;5071074;28;20456;-67
2022/10/13 05:12:09;;;;;;;4.00;2.97;;;10.40;98.00;;;;;;5074120;28;20495;-67
2022/10/13 05:14:36;;;;;;;4.00;2.87;;;10.30;98.00;;;;;;5074789;28;20677;-67
2022/10/13 05:17:03;;;;;;;4.57;3.13;;;10.20;98.00;;;;;;5074714;28;20465;-66
2022/10/13 05:19:30;;;;;;;2.70;2.17;;;10.10;98.00;;;;;;5074856;28;20478;-67
2022/10/13 05:21:57;;;;;;;3.73;2.67;;;10.20;98.00;;;;;;5073211;28;20457;-67
2022/10/13 05:24:35;;;;;;;3.40;2.87;;;10.30;98.00;;;;;;5074344;28;20512;-66
2022/10/13 05:27:03;;;;;;;5.10;2.60;;;10.30;98.00;;;;;;5074526;28;20455;-67
2022/10/13 05:29:32;;;;;;;4.77;2.83;;;10.30;98.00;;;;;;5074271;28;20488;-67
2022/10/13 05:31:59;;;;;;;7.43;2.80;;;10.40;98.00;;;;;;5074607;28;20456;-67
2022/10/13 05:34:26;;;;;;;3.30;2.27;;;10.40;98.00;;;;;;5074291;28;20815;-67
2022/10/13 05:36:53;;;;;;;8.03;2.73;;;10.40;98.00;;;;;;5074398;28;20454;-67
2022/10/13 05:39:20;;;;;;;5.10;2.27;;;10.40;98.00;;;;;;5073370;28;20467;-67
2022/10/13 05:41:49;;;;;;;6.20;2.90;;;10.30;98.00;;;;;;5074348;28;20823;-67
2022/10/13 05:44:16;;;;;;;3.90;2.87;;;10.20;98.00;;;;;;5073210;28;20459;-66
2022/10/13 05:46:46;;;;;;;4.33;2.73;;;10.20;98.00;;;;;;5073906;28;20484;-67
2022/10/13 05:49:13;;;;;;;5.73;2.87;;;10.10;98.00;;;;;;5073897;28;20895;-67
2022/10/13 05:51:43;;;;;;;6.03;2.83;;;10.20;98.00;;;;;;5073898;28;20453;-67
2022/10/13 05:54:16;;;;;;;9.50;2.90;;;10.20;98.00;;;;;;5073950;28;20503;-67
2022/10/13 05:56:46;;;;;;;4.97;2.50;;;10.20;98.00;;;;;;5072698;28;20450;-67
2022/10/13 05:59:18;;;;;;;2.93;2.30;;;10.40;98.00;;;;;;5072854;28;20456;-67
2022/10/13 06:01:47;;;;;;;3.63;2.20;;;10.30;98.00;;;;;;5056393;28;20518;-67
2022/10/13 06:04:21;;;;;;;3.57;2.77;;;10.20;98.00;;;;;;5073801;28;20467;-67
2022/10/13 06:06:49;;;;;;;4.37;2.97;;;10.30;98.00;;;;;;5073681;28;20499;-67
2022/10/13 06:09:20;;;;;;;2.70;1.90;;;10.30;98.00;;;;;;5073467;28;20486;-67
2022/10/13 06:11:48;;;;;;;5.60;2.63;;;10.30;98.00;;;;;;5073774;28;20461;-67
2022/10/13 06:14:15;;;;;;;2.70;2.30;;;10.50;98.00;;;;;;5073367;28;20470;-66
2022/10/13 06:16:43;;;;;;;5.03;3.03;;;10.60;98.00;;;;;;5073555;28;20467;-67
2022/10/13 06:19:12;;;;;;;6.40;2.60;;;10.60;98.00;;;;;;5072559;28;20514;-67
2022/10/13 06:21:39;;;;;;;3.20;2.53;;;10.60;98.00;;;;;;5072663;28;20452;-67
2022/10/13 06:24:06;;;;;;;4.63;2.30;;;10.60;98.00;;;;;;5072816;28;20458;-63
2022/10/13 06:26:33;;;;;;;5.00;3.40;;;10.80;98.00;;;;;;5072281;28;20958;-63
2022/10/13 06:29:00;;;;;;;4.30;2.40;;;10.80;98.00;;;;;;5071790;28;20511;-64
2022/10/13 06:31:28;;;;;;;4.73;2.80;;;11.00;98.00;;;;;;5073334;28;20458;-64
2022/10/13 06:33:55;;;;;;;5.63;2.60;;;11.20;98.00;;;;;;5073312;28;21016;-63
2022/10/13 06:36:23;;;;;;;6.70;3.80;;;11.40;98.00;;;;;;5073021;28;20518;-63
2022/10/13 06:38:50;;;;;;;4.60;2.73;;;11.40;98.00;;;;;;5073086;28;20466;-64
2022/10/13 06:41:18;;;;;;;6.23;3.33;;;11.60;98.00;;;;;;5073072;28;20475;-64
2022/10/13 06:43:46;;;;;;;6.40;3.60;;;11.80;98.00;;;;;;5073048;28;20466;-64
2022/10/13 06:46:13;;;;;;;6.80;3.43;;;11.90;98.00;;;;;;5073372;28;20894;-64
2022/10/13 06:48:42;;;;;;;10.40;3.43;;;11.90;98.00;;;;;;5072963;28;20485;-64
2022/10/13 06:51:11;;;;;;;3.57;2.73;;;11.90;98.00;;;;;;5071618;28;20545;-64
2022/10/13 06:53:39;;;;;;;6.47;3.40;;;11.90;98.00;;;;;;5072817;28;20453;-64
2022/10/13 06:56:08;;;;;;;5.57;3.20;;;11.90;98.00;;;;;;5072718;28;20458;-64
2022/10/13 06:58:35;;;;;;;7.83;3.10;;;11.90;98.00;;;;;;5072655;28;20473;-64
2022/10/13 07:01:02;;;;;;;5.43;2.90;;;12.00;98.00;;;;;;5072560;28;20531;-64
2022/10/13 07:03:29;;;;;;;5.93;3.17;;;12.00;98.00;;;;;;5072753;28;20465;-64
2022/10/13 07:06:01;;;;;;;5.53;3.17;;;11.90;98.00;;;;;;5072558;28;20463;-64
2022/10/13 07:08:30;;;;;;;5.33;3.40;;;11.90;98.00;;;;;;5072440;28;20487;-64
2022/10/13 07:10:58;;;;;;;4.93;3.13;;;11.90;98.00;;;;;;5072390;28;20966;-64
2022/10/13 07:13:25;;;;;;;8.43;4.07;;;12.10;98.00;;;;;;5072293;28;20461;-64
2022/10/13 07:15:52;;;;;;;5.63;3.20;;;12.20;98.00;;;;;;5072361;28;20549;-64
2022/10/13 07:18:21;;;;;;;5.33;3.20;;;12.20;98.00;;;;;;5072207;28;20854;-65
2022/10/13 07:20:48;;;;;;;7.10;4.20;;;12.30;98.00;;;;;;5072284;28;20476;-64
2022/10/13 07:23:18;;;;;;;6.90;3.20;;;12.30;98.00;;;;;;5072159;28;20451;-65
2022/10/13 07:25:45;;;;;;;8.57;3.70;;;12.40;98.00;;;;;;5072290;28;20540;-64
2022/10/13 07:28:14;;;;;;;5.53;2.83;;;12.50;98.00;;;;;;5072164;28;20478;-64
2022/10/13 07:30:42;;;;;;;6.33;3.43;;;12.50;98.00;;;;;;5069116;28;20959;-63
2022/10/13 07:33:12;;;;;;;5.30;2.97;;;12.70;98.00;;;;;;5047764;28;20462;-67
2022/10/13 07:35:39;;;;;;;3.93;2.60;;;13.10;98.00;;;;;;5049183;28;20498;-65
2022/10/13 07:38:08;;;;;;;4.97;2.60;;;13.70;98.00;;;;;;5049514;28;20461;-64
2022/10/13 07:40:37;;;;;;;8.40;3.80;;;14.20;98.00;;;;;;5052492;28;20786;-64
2022/10/13 07:43:05;;;;;;;6.83;3.60;;;14.30;98.00;;;;;;5049435;28;20825;-64
2022/10/13 07:45:34;;;;;;;9.10;4.60;;;14.30;98.00;;;;;;5049562;28;20548;-64
2022/10/13 07:48:01;;;;;;;7.10;3.73;;;14.00;98.00;;;;;;5049261;28;20488;-64
2022/10/13 07:50:28;;;;;;;8.20;4.63;;;13.80;98.00;;;;;;5053089;28;20867;-64
2022/10/13 07:52:55;;;;;;;5.70;3.20;;;13.60;98.00;;;;;;5049261;28;20598;-64
2022/10/13 07:55:22;;;;;;;7.47;4.17;;;13.70;98.00;;;;;;5048137;28;20457;-64
2022/10/13 07:57:49;;;;;;;13.30;3.87;;;13.50;98.00;;;;;;5048393;28;20763;-65
2022/10/13 08:00:17;;;;;;;8.30;3.67;;;13.40;98.00;;;;;;5049413;28;20470;-64
2022/10/13 08:02:49;;;;;;;5.83;3.30;;;13.30;98.00;;;;;;5040804;28;20933;-65
2022/10/13 08:05:16;;;;;;;7.80;3.87;;;13.20;98.00;;;;;;5049268;28;20507;-64
2022/10/13 08:07:43;;;;;;;5.73;3.43;;;13.40;98.00;;;;;;5049252;28;20456;-64
2022/10/13 08:10:10;;;;;;;10.50;3.83;;;13.40;98.00;;;;;;5049071;28;21192;-64
2022/10/13 08:12:37;;;;;;;6.40;3.70;;;13.50;98.00;;;;;;5049112;28;20464;-65
2022/10/13 08:15:05;;;;;;;6.93;3.67;;;13.70;98.00;;;;;;5048886;28;20457;-65
2022/10/13 08:17:32;;;;;;;5.60;3.50;;;14.00;98.00;;;;;;5049104;28;20461;-65
2022/10/13 08:20:01;;;;;;;9.53;3.47;;;14.10;98.00;;;;;;5012454;28;20856;-64
2022/10/13 08:22:28;;;;;;;5.23;2.93;;;14.10;98.00;;;;;;5049436;28;20531;-65
2022/10/13 08:24:55;;;;;;;6.70;3.50;;;14.10;98.00;;;;;;5047726;28;20459;-66
2022/10/13 08:27:25;;;;;;;8.20;3.80;;;14.20;98.00;;;;;;5048983;28;20534;-65
2022/10/13 08:29:53;;;;;;;8.03;4.10;;;14.30;98.00;;;;;;5048415;28;20498;-66
2022/10/13 08:32:20;;;;;;;5.57;3.70;;;14.30;98.00;;;;;;5048823;28;20493;-65
2022/10/13 08:34:48;;;;;;;7.30;3.60;;;14.30;98.00;;;;;;5048603;28;20864;-66
2022/10/13 08:37:18;;;;;;;7.17;4.30;;;14.30;98.00;;;;;;5048836;28;20459;-65
2022/10/13 08:39:45;;;;;;;6.33;3.20;;;14.20;98.00;;;;;;5048890;28;20471;-64
2022/10/13 08:42:16;;;;;;;6.87;3.90;;;14.30;98.00;;;;;;5048998;28;20478;-65
2022/10/13 08:44:46;;;;;;;8.03;3.67;;;14.40;98.00;;;;;;5048589;28;20557;-65
2022/10/13 08:47:24;;;;;;;6.70;3.60;;;14.40;98.00;;;;;;5052420;28;20468;-66
2022/10/13 08:49:51;;;;;;;4.77;2.70;;;14.30;98.00;;;;;;5048943;28;20962;-64
2022/10/13 08:52:22;;;;;;;5.10;3.23;;;14.30;98.00;;;;;;5052895;28;20895;-64
2022/10/13 08:54:50;;;;;;;9.23;3.27;;;14.40;98.00;;;;;;5051368;28;20563;-64
2022/10/13 08:57:18;;;;;;;5.50;2.80;;;14.40;98.00;;;;;;5052297;28;20463;-64
2022/10/13 08:59:45;;;;;;;11.03;4.33;;;14.40;98.00;;;;;;5055423;28;20852;-64
2022/10/13 09:02:14;;;;;;;5.03;2.93;;;14.50;98.00;;;;;;5034497;28;20578;-64
2022/10/13 09:04:45;;;;;;;8.80;3.33;;;14.60;98.00;;;;;;5052244;28;20567;-64
2022/10/13 09:07:15;;;;;;;3.83;2.60;;;14.60;98.00;;;;;;5052184;28;20518;-67
2022/10/13 09:09:44;;;;;;;4.43;2.50;;;15.00;98.00;;;;;;5052289;28;20503;-67
2022/10/13 09:12:14;;;;;;;7.37;3.60;;;15.40;98.00;;;;;;5051844;28;20782;-64
2022/10/13 09:14:41;;;;;;;7.97;3.93;;;15.70;98.00;;;;;;5052122;28;20542;-64
2022/10/13 09:17:17;;;;;;;7.30;3.60;;;16.00;98.00;;;;;;5052064;28;20829;-64
2022/10/13 09:19:45;;;;;;;9.13;3.97;;;16.10;98.00;;;;;;5052244;28;20453;-64
2022/10/13 09:22:23;;;;;;;13.83;4.00;;;16.20;98.00;;;;;;5051873;28;20462;-64
2022/10/13 09:25:10;;;;;;;9.67;3.30;;;16.00;98.00;;;;;;5052071;28;20456;-64
2022/10/13 09:27:44;;;;;;;4.93;2.80;;;15.90;98.00;;;;;;5051965;28;20877;-64
2022/10/13 09:30:33;;;;;;;7.47;3.30;;;15.90;98.00;;;;;;5052023;28;20496;-64
2022/10/13 09:33:23;;;;;;;6.13;3.37;;;15.90;98.00;;;;;;5044231;28;20955;-65
2022/10/13 09:36:09;;;;;;;5.53;3.40;;;15.90;98.00;;;;;;5052081;28;20465;-64
2022/10/13 09:39:01;;;;;;;11.73;4.03;;;15.80;98.00;;;;;;5052078;28;20460;-64
2022/10/13 09:41:35;;;;;;;7.03;3.27;;;15.90;98.00;;;;;;5051578;28;20527;-65
2022/10/13 09:44:11;;;;;;;8.27;3.87;;;16.10;98.00;;;;;;5051816;28;20545;-64
2022/10/13 09:46:46;;;;;;;6.87;3.70;;;16.10;98.00;;;;;;5051640;28;20476;-64
2022/10/13 09:49:31;;;;;;;6.07;3.23;;;16.20;98.00;;;;;;5050355;28;20663;-66
2022/10/13 09:52:03;;;;;;;9.00;3.20;;;16.20;98.00;;;;;;5047411;28;20519;-64
2022/10/13 09:54:38;;;;;;;5.73;3.23;;;16.30;98.00;;;;;;5051862;28;20469;-64
2022/10/13 09:57:13;;;;;;;8.33;3.57;;;16.30;98.00;;;;;;5051374;28;20555;-64
2022/10/13 09:59:45;;;;;;;6.70;3.50;;;16.30;98.00;;;;;;5051095;28;20510;-64
2022/10/13 10:02:21;;;;;;;7.97;3.17;;;16.30;98.00;;;;;;5051653;28;20461;-64
2022/10/13 10:04:51;;;;;;;8.03;3.40;;;16.30;98.00;;;;;;5050201;28;20556;-64
2022/10/13 10:07:25;;;;;;;9.93;4.40;;;16.50;98.00;;;;;;5051192;28;20956;-64
2022/10/13 10:09:55;;;;;;;7.70;3.70;;;16.50;98.00;;;;;;5051473;28;20866;-65
2022/10/13 10:12:27;;;;;;;5.43;3.10;;;16.60;98.00;;;;;;5051252;28;20462;-65
2022/10/13 10:14:54;;;;;;;7.13;3.43;;;16.60;98.00;;;;;;5050759;28;20465;-65
2022/10/13 10:17:27;;;;;;;6.00;3.27;;;16.70;98.00;;;;;;5050899;28;20461;-65
2022/10/13 10:20:06;;;;;;;5.10;3.10;;;16.80;98.00;;;;;;5051389;28;20489;-65
2022/10/13 10:22:41;;;;;;;5.70;3.40;;;16.80;98.00;;;;;;5050931;28;20461;-64
2022/10/13 10:25:26;;;;;;;19.87;3.73;;;17.00;98.00;;;;;;5049520;28;20975;-64
2022/10/13 10:28:13;;;;;;;8.10;3.60;;;17.00;98.00;;;;;;5050911;28;21038;-64
2022/10/13 10:30:48;;;;;;;6.80;3.30;;;17.10;98.00;;;;;;5050851;28;20496;-64
2022/10/13 10:33:21;;;;;;;5.67;3.23;;;17.10;98.00;;;;;;5050826;28;20457;-64
2022/10/13 10:35:53;;;;;;;7.67;3.20;;;17.10;98.00;;;;;;5050838;28;20461;-65
2022/10/13 10:38:30;;;;;;;6.30;3.40;;;17.20;98.00;;;;;;5051266;28;20615;-65
2022/10/13 10:41:15;;;;;;;9.43;3.40;;;17.30;98.00;;;;;;5049644;28;21005;-64
2022/10/13 10:43:49;;;;;;;6.10;2.90;;;17.30;98.00;;;;;;5050615;28;20920;-64
2022/10/13 10:46:29;;;;;;;6.03;3.60;;;17.30;98.00;;;;;;5050595;28;21020;-64
2022/10/13 10:49:01;;;;;;;7.40;3.73;;;17.30;98.00;;;;;;5050664;28;20489;-64
2022/10/13 10:51:32;;;;;;;8.77;3.00;;;17.00;98.00;;;;;;5052712;28;20465;-64
2022/10/13 10:54:16;;;;;;;4.93;3.10;;;17.00;98.00;;;;;;5052886;28;20457;-64
2022/10/13 10:56:49;;;;;;;5.10;2.90;;;16.90;98.00;;;;;;5052320;28;20550;-64
2022/10/13 10:59:30;;;;;;;6.97;3.30;;;17.00;98.00;;;;;;5051903;28;20453;-64
2022/10/13 11:02:10;;;;;;;7.10;3.67;;;17.10;98.00;;;;;;5052792;28;20513;-64
2022/10/13 11:04:43;;;;;;;5.60;3.13;;;17.10;98.00;;;;;;5051356;28;20910;-64
2022/10/13 11:07:35;;;;;;;5.97;3.20;;;17.10;98.00;;;;;;5052311;28;20873;-64
2022/10/13 11:10:12;;;;;;;5.20;3.10;;;17.10;98.00;;;;;;5051796;28;20573;-64
2022/10/13 11:13:24;;;;;;;6.33;2.77;;;17.10;98.00;;;;;;5052643;28;20461;-64
2022/10/13 11:15:54;;;;;;;6.00;3.47;;;17.10;98.00;;;;;;5052773;28;20464;-64
2022/10/13 11:19:07;;;;;;;5.00;3.40;;;17.10;98.00;;;;;;5052177;28;20453;-64
2022/10/13 11:22:23;;;;;;;5.17;3.23;;;17.20;98.00;;;;;;5052920;28;20461;-64
2022/10/13 11:25:11;;;;;;;5.03;2.60;;;17.20;98.00;;;;;;5052442;28;20511;-64
2022/10/13 11:27:43;;;;;;;7.90;3.93;;;17.20;98.00;;;;;;5051978;28;21026;-64
2022/10/13 11:30:50;;;;;;;8.37;3.40;;;17.20;98.00;;;;;;5052331;28;20478;-64
2022/10/13 11:33:51;;;;;;;3.00;2.13;;;17.30;98.00;;;;;;5050873;28;20461;-64
2022/10/13 11:36:47;;;;;;;9.57;2.90;;;17.30;98.00;;;;;;5051977;28;20468;-64
2022/10/13 11:40:05;;;;;;;6.17;2.80;;;17.30;98.00;;;;;;5046568;28;20466;-64
2022/10/13 11:43:04;;;;;;;6.03;2.70;;;17.30;98.00;;;;;;5051850;28;20519;-64
2022/10/13 11:45:58;;;;;;;6.77;3.33;;;17.40;98.00;;;;;;5051747;28;20449;-64
2022/10/13 11:48:53;;;;;;;7.10;3.27;;;17.50;98.00;;;;;;5044292;28;20470;-64
2022/10/13 11:51:32;;;;;;;6.57;3.00;;;17.40;98.00;;;;;;5051640;28;20785;-64
2022/10/13 11:54:13;;;;;;;6.00;2.70;;;17.40;98.00;;;;;;5051899;28;20853;-64
2022/10/13 11:56:46;;;;;;;5.43;3.13;;;17.40;98.00;;;;;;5051822;28;20458;-64
2022/10/13 11:59:24;;;;;;;7.00;3.43;;;17.40;98.00;;;;;;5051828;28;20461;-63
2022/10/13 12:01:56;;;;;;;4.93;2.90;;;17.30;98.00;;;;;;5051779;28;20980;-64
2022/10/13 12:04:29;;;;;;;6.60;3.77;;;17.40;98.00;;;;;;5051814;28;20454;-64
2022/10/13 12:07:01;;;;;;;5.07;2.67;;;17.30;98.00;;;;;;5050464;28;20454;-64
2022/10/13 12:09:30;;;;;;;6.40;2.70;;;17.30;98.00;;;;;;5051474;28;20489;-64
2022/10/13 12:12:00;;;;;;;4.87;3.20;;;17.20;98.00;;;;;;5051380;28;20500;-64
2022/10/13 12:14:32;;;;;;;6.30;3.20;;;17.10;98.00;;;;;;5051373;28;20527;-64
2022/10/13 12:17:01;;;;;;;7.43;3.73;;;17.20;98.00;;;;;;5051404;28;20561;-63
2022/10/13 12:19:30;;;;;;;6.33;3.23;;;17.30;98.00;;;;;;5050471;28;20497;-64
2022/10/13 12:22:01;;;;;;;6.50;3.17;;;17.30;98.00;;;;;;5050899;28;20503;-64
2022/10/13 12:24:29;;;;;;;7.83;3.60;;;17.30;98.00;;;;;;5051496;28;20519;-64
2022/10/13 12:26:57;;;;;;;8.13;3.70;;;17.30;98.00;;;;;;5051531;28;20459;-64
2022/10/13 12:29:27;;;;;;;5.87;2.80;;;17.40;98.00;;;;;;5051119;28;20559;-64
2022/10/13 12:31:57;;;;;;;4.40;2.50;;;17.40;98.00;;;;;;5051192;28;20466;-64
2022/10/13 12:34:26;;;;;;;5.70;2.93;;;17.50;98.00;;;;;;5051151;28;20871;-65
2022/10/13 12:37:01;;;;;;;5.90;3.53;;;17.80;98.00;;;;;;5051335;28;20457;-64
2022/10/13 12:39:31;;;;;;;5.77;3.00;;;17.90;98.00;;;;;;5051546;28;20471;-65
2022/10/13 12:41:59;;;;;;;6.30;3.37;;;18.10;98.00;;;;;;5051265;28;20461;-64
2022/10/13 12:44:29;;;;;;;6.40;2.70;;;18.30;98.00;;;;;;5051031;28;20457;-64
2022/10/13 12:46:58;;;;;;;6.40;3.20;;;18.30;98.00;;;;;;5050831;28;20461;-63
2022/10/13 12:49:27;;;;;;;6.63;3.00;;;18.40;98.00;;;;;;5050892;28;20458;-64
2022/10/13 12:51:58;;;;;;;6.93;3.00;;;18.60;98.00;;;;;;5051096;28;20462;-64
2022/10/13 12:54:29;;;;;;;6.33;3.37;;;18.60;98.00;;;;;;5051114;28;20482;-64
2022/10/13 12:56:59;;;;;;;6.63;3.07;;;18.80;98.00;;;;;;5051095;28;20450;-64
2022/10/13 12:59:28;;;;;;;6.50;3.57;;;19.30;98.00;;;;;;5050862;28;20982;-64
2022/10/13 13:01:58;;;;;;;4.70;2.77;;;19.80;98.00;;;;;;5051440;28;20464;-64
2022/10/13 13:04:41;;;;;;;4.27;2.73;;;20.10;98.00;;;;;;5050945;28;20456;-64
2022/10/13 13:07:28;;;;;;;5.10;2.80;;;20.40;98.00;;;;;;5051305;28;20960;-64
2022/10/13 13:10:15;;;;;;;6.87;2.97;;;20.50;98.00;;;;;;5050952;28;20487;-64